Terminal Aerodrome Forecast
Issued by NWS Memphis, TN

Home | Current Version | Previous Version | Text Only | Print | Product List | Glossary On
Versions: 1 2 3 4 5 6 7 8 9 10 11 12 13 14 15 16 17 18
000
FTUS44 KMEG 300530
TAFMKL
TAF
KMKL 300530Z 3006/3106 36003KT P6SM VCTS BKN040CB BKN150
     FM300900 02003KT P6SM SCT040 BKN150
     FM301300 02010KT P6SM SCT250
     FM310100 01002KT P6SM SKC=

USA.gov is the U.S. government's official web portal to all federal, state and local government web resources and services.